sensor_id;sensor_type;location;lat;lon;timestamp;P1;durP1;ratioP1;P2;durP2;ratioP2
74707;SDS011;63360;50.104;8.074;2023-03-23T00:02:22;1.80;;;0.40;;
74707;SDS011;63360;50.104;8.074;2023-03-23T00:04:51;2.17;;;0.50;;
74707;SDS011;63360;50.104;8.074;2023-03-23T00:07:18;1.58;;;0.50;;
74707;SDS011;63360;50.104;8.074;2023-03-23T00:09:47;1.02;;;0.40;;
74707;SDS011;63360;50.104;8.074;2023-03-23T00:12:18;1.27;;;0.40;;
74707;SDS011;63360;50.104;8.074;2023-03-23T00:14:43;1.70;;;0.40;;
74707;SDS011;63360;50.104;8.074;2023-03-23T00:17:09;0.90;;;0.40;;
74707;SDS011;63360;50.104;8.074;2023-03-23T00:19:38;1.40;;;0.50;;
74707;SDS011;63360;50.104;8.074;2023-03-23T00:22:11;2.00;;;0.50;;
74707;SDS011;63360;50.104;8.074;2023-03-23T00:24:37;1.30;;;0.50;;
74707;SDS011;63360;50.104;8.074;2023-03-23T00:27:03;1.23;;;0.40;;
74707;SDS011;63360;50.104;8.074;2023-03-23T00:29:28;1.80;;;0.50;;
74707;SDS011;63360;50.104;8.074;2023-03-23T00:31:54;1.20;;;0.50;;
74707;SDS011;63360;50.104;8.074;2023-03-23T00:34:22;1.52;;;0.52;;
74707;SDS011;63360;50.104;8.074;2023-03-23T00:36:50;2.05;;;0.50;;
74707;SDS011;63360;50.104;8.074;2023-03-23T00:39:24;1.53;;;0.50;;
74707;SDS011;63360;50.104;8.074;2023-03-23T00:41:51;1.15;;;0.40;;
74707;SDS011;63360;50.104;8.074;2023-03-23T00:44:18;2.25;;;0.40;;
74707;SDS011;63360;50.104;8.074;2023-03-23T00:46:47;1.35;;;0.50;;
74707;SDS011;63360;50.104;8.074;2023-03-23T00:49:15;1.23;;;0.40;;
74707;SDS011;63360;50.104;8.074;2023-03-23T00:51:43;1.20;;;0.30;;
74707;SDS011;63360;50.104;8.074;2023-03-23T00:54:09;1.25;;;0.30;;
74707;SDS011;63360;50.104;8.074;2023-03-23T00:56:35;2.22;;;0.50;;
74707;SDS011;63360;50.104;8.074;2023-03-23T00:59:01;1.50;;;0.40;;
74707;SDS011;63360;50.104;8.074;2023-03-23T01:01:27;2.30;;;0.65;;
74707;SDS011;63360;50.104;8.074;2023-03-23T01:03:53;1.10;;;0.40;;
74707;SDS011;63360;50.104;8.074;2023-03-23T01:06:25;2.10;;;0.60;;
74707;SDS011;63360;50.104;8.074;2023-03-23T01:08:56;2.13;;;0.90;;
74707;SDS011;63360;50.104;8.074;2023-03-23T01:11:23;2.55;;;0.50;;
74707;SDS011;63360;50.104;8.074;2023-03-23T01:13:49;2.58;;;0.50;;
74707;SDS011;63360;50.104;8.074;2023-03-23T01:16:15;2.30;;;0.70;;
74707;SDS011;63360;50.104;8.074;2023-03-23T01:18:40;0.90;;;0.40;;
74707;SDS011;63360;50.104;8.074;2023-03-23T01:21:07;1.77;;;0.40;;
74707;SDS011;63360;50.104;8.074;2023-03-23T01:23:35;0.90;;;0.40;;
74707;SDS011;63360;50.104;8.074;2023-03-23T01:26:04;2.23;;;0.50;;
74707;SDS011;63360;50.104;8.074;2023-03-23T01:28:32;2.00;;;0.55;;
74707;SDS011;63360;50.104;8.074;2023-03-23T01:30:59;1.20;;;0.50;;
74707;SDS011;63360;50.104;8.074;2023-03-23T01:33:26;2.90;;;0.50;;
74707;SDS011;63360;50.104;8.074;2023-03-23T01:35:51;2.30;;;0.50;;
74707;SDS011;63360;50.104;8.074;2023-03-23T01:38:16;0.87;;;0.40;;
74707;SDS011;63360;50.104;8.074;2023-03-23T01:40:42;2.30;;;0.40;;
74707;SDS011;63360;50.104;8.074;2023-03-23T01:43:11;2.90;;;0.50;;
74707;SDS011;63360;50.104;8.074;2023-03-23T01:45:39;2.17;;;0.55;;
74707;SDS011;63360;50.104;8.074;2023-03-23T01:48:10;1.27;;;0.60;;
74707;SDS011;63360;50.104;8.074;2023-03-23T01:51:04;2.35;;;0.80;;
74707;SDS011;63360;50.104;8.074;2023-03-23T01:53:40;1.13;;;0.60;;
74707;SDS011;63360;50.104;8.074;2023-03-23T01:56:09;1.40;;;0.40;;
74707;SDS011;63360;50.104;8.074;2023-03-23T01:58:37;1.08;;;0.47;;
74707;SDS011;63360;50.104;8.074;2023-03-23T02:01:05;1.00;;;0.40;;
74707;SDS011;63360;50.104;8.074;2023-03-23T02:03:36;0.80;;;0.40;;
74707;SDS011;63360;50.104;8.074;2023-03-23T02:06:04;1.10;;;0.40;;
74707;SDS011;63360;50.104;8.074;2023-03-23T02:08:30;1.20;;;0.60;;
74707;SDS011;63360;50.104;8.074;2023-03-23T02:10:58;1.40;;;0.50;;
74707;SDS011;63360;50.104;8.074;2023-03-23T02:13:24;2.30;;;0.50;;
74707;SDS011;63360;50.104;8.074;2023-03-23T02:16:04;1.10;;;0.50;;
74707;SDS011;63360;50.104;8.074;2023-03-23T02:19:03;1.30;;;0.57;;
74707;SDS011;63360;50.104;8.074;2023-03-23T02:27:38;1.63;;;0.60;;
74707;SDS011;63360;50.104;8.074;2023-03-23T02:36:10;1.73;;;0.40;;
74707;SDS011;63360;50.104;8.074;2023-03-23T02:38:53;2.08;;;0.50;;
74707;SDS011;63360;50.104;8.074;2023-03-23T02:41:24;1.58;;;0.57;;
74707;SDS011;63360;50.104;8.074;2023-03-23T02:43:55;2.55;;;0.60;;
74707;SDS011;63360;50.104;8.074;2023-03-23T02:46:22;1.70;;;0.50;;
74707;SDS011;63360;50.104;8.074;2023-03-23T02:48:50;1.20;;;0.50;;
74707;SDS011;63360;50.104;8.074;2023-03-23T02:51:21;1.40;;;0.50;;
74707;SDS011;63360;50.104;8.074;2023-03-23T02:53:49;1.25;;;0.50;;
74707;SDS011;63360;50.104;8.074;2023-03-23T02:56:18;1.60;;;0.50;;
74707;SDS011;63360;50.104;8.074;2023-03-23T02:58:45;1.77;;;0.50;;
74707;SDS011;63360;50.104;8.074;2023-03-23T03:01:46;1.60;;;0.67;;
74707;SDS011;63360;50.104;8.074;2023-03-23T03:04:22;1.35;;;0.50;;
74707;SDS011;63360;50.104;8.074;2023-03-23T03:09:31;1.75;;;0.50;;
74707;SDS011;63360;50.104;8.074;2023-03-23T03:12:02;1.55;;;0.60;;
74707;SDS011;63360;50.104;8.074;2023-03-23T03:14:42;2.10;;;0.50;;
74707;SDS011;63360;50.104;8.074;2023-03-23T03:17:33;2.03;;;0.52;;
74707;SDS011;63360;50.104;8.074;2023-03-23T03:20:04;1.13;;;0.50;;
74707;SDS011;63360;50.104;8.074;2023-03-23T03:22:35;1.88;;;0.75;;
74707;SDS011;63360;50.104;8.074;2023-03-23T03:25:03;1.75;;;0.65;;
74707;SDS011;63360;50.104;8.074;2023-03-23T03:27:30;1.02;;;0.50;;
74707;SDS011;63360;50.104;8.074;2023-03-23T03:29:58;2.25;;;0.70;;
74707;SDS011;63360;50.104;8.074;2023-03-23T03:32:29;1.30;;;0.50;;
74707;SDS011;63360;50.104;8.074;2023-03-23T03:35:00;1.85;;;0.60;;
74707;SDS011;63360;50.104;8.074;2023-03-23T03:37:32;2.90;;;0.70;;
74707;SDS011;63360;50.104;8.074;2023-03-23T03:39:59;1.92;;;0.75;;
74707;SDS011;63360;50.104;8.074;2023-03-23T03:42:25;2.80;;;0.98;;
74707;SDS011;63360;50.104;8.074;2023-03-23T03:44:51;2.43;;;0.80;;
74707;SDS011;63360;50.104;8.074;2023-03-23T03:47:16;1.97;;;0.70;;
74707;SDS011;63360;50.104;8.074;2023-03-23T03:49:41;2.27;;;0.60;;
74707;SDS011;63360;50.104;8.074;2023-03-23T03:52:07;2.30;;;0.70;;
74707;SDS011;63360;50.104;8.074;2023-03-23T03:54:32;2.83;;;0.80;;
74707;SDS011;63360;50.104;8.074;2023-03-23T03:56:57;2.90;;;0.70;;
74707;SDS011;63360;50.104;8.074;2023-03-23T03:59:24;2.22;;;0.70;;
74707;SDS011;63360;50.104;8.074;2023-03-23T04:01:51;3.28;;;0.80;;
74707;SDS011;63360;50.104;8.074;2023-03-23T04:04:19;1.70;;;0.60;;
74707;SDS011;63360;50.104;8.074;2023-03-23T04:06:45;1.30;;;0.60;;
74707;SDS011;63360;50.104;8.074;2023-03-23T04:09:14;3.20;;;0.70;;
74707;SDS011;63360;50.104;8.074;2023-03-23T04:11:39;3.50;;;0.90;;
74707;SDS011;63360;50.104;8.074;2023-03-23T04:14:05;4.47;;;1.00;;
74707;SDS011;63360;50.104;8.074;2023-03-23T04:16:31;3.25;;;0.82;;
74707;SDS011;63360;50.104;8.074;2023-03-23T04:18:59;1.70;;;0.70;;
74707;SDS011;63360;50.104;8.074;2023-03-23T04:21:25;4.17;;;0.73;;
74707;SDS011;63360;50.104;8.074;2023-03-23T04:23:53;2.45;;;0.90;;
74707;SDS011;63360;50.104;8.074;2023-03-23T04:26:19;2.42;;;0.90;;
74707;SDS011;63360;50.104;8.074;2023-03-23T04:28:45;1.90;;;0.70;;
74707;SDS011;63360;50.104;8.074;2023-03-23T04:31:10;2.07;;;0.80;;
74707;SDS011;63360;50.104;8.074;2023-03-23T04:33:37;1.85;;;0.70;;
74707;SDS011;63360;50.104;8.074;2023-03-23T04:36:06;2.38;;;0.80;;
74707;SDS011;63360;50.104;8.074;2023-03-23T04:38:32;1.63;;;0.70;;
74707;SDS011;63360;50.104;8.074;2023-03-23T04:40:59;2.73;;;1.00;;
74707;SDS011;63360;50.104;8.074;2023-03-23T04:43:27;1.20;;;0.60;;
74707;SDS011;63360;50.104;8.074;2023-03-23T04:45:56;2.38;;;0.80;;
74707;SDS011;63360;50.104;8.074;2023-03-23T04:48:23;2.75;;;0.85;;
74707;SDS011;63360;50.104;8.074;2023-03-23T04:50:53;1.85;;;0.70;;
74707;SDS011;63360;50.104;8.074;2023-03-23T04:53:19;2.23;;;0.80;;
74707;SDS011;63360;50.104;8.074;2023-03-23T04:55:46;1.65;;;0.80;;
74707;SDS011;63360;50.104;8.074;2023-03-23T04:58:12;2.95;;;1.08;;
74707;SDS011;63360;50.104;8.074;2023-03-23T05:00:39;2.72;;;0.80;;
74707;SDS011;63360;50.104;8.074;2023-03-23T05:03:05;2.20;;;0.80;;
74707;SDS011;63360;50.104;8.074;2023-03-23T05:05:33;2.60;;;0.90;;
74707;SDS011;63360;50.104;8.074;2023-03-23T05:07:59;2.13;;;0.60;;
74707;SDS011;63360;50.104;8.074;2023-03-23T05:10:25;1.60;;;0.70;;
74707;SDS011;63360;50.104;8.074;2023-03-23T05:12:52;3.35;;;1.08;;
74707;SDS011;63360;50.104;8.074;2023-03-23T05:15:18;2.72;;;0.82;;
74707;SDS011;63360;50.104;8.074;2023-03-23T05:17:43;1.97;;;0.80;;
74707;SDS011;63360;50.104;8.074;2023-03-23T05:20:13;2.03;;;0.73;;
74707;SDS011;63360;50.104;8.074;2023-03-23T05:22:40;2.45;;;0.80;;
74707;SDS011;63360;50.104;8.074;2023-03-23T05:25:06;2.30;;;0.82;;
74707;SDS011;63360;50.104;8.074;2023-03-23T05:27:36;2.13;;;0.75;;
74707;SDS011;63360;50.104;8.074;2023-03-23T05:30:03;2.33;;;0.70;;
74707;SDS011;63360;50.104;8.074;2023-03-23T05:32:30;1.50;;;0.63;;
74707;SDS011;63360;50.104;8.074;2023-03-23T05:34:56;2.55;;;0.90;;
74707;SDS011;63360;50.104;8.074;2023-03-23T05:37:23;2.42;;;0.80;;
74707;SDS011;63360;50.104;8.074;2023-03-23T05:39:49;2.20;;;1.00;;
74707;SDS011;63360;50.104;8.074;2023-03-23T05:42:18;2.00;;;0.90;;
74707;SDS011;63360;50.104;8.074;2023-03-23T05:44:45;2.00;;;1.00;;
74707;SDS011;63360;50.104;8.074;2023-03-23T05:47:11;3.63;;;1.23;;
74707;SDS011;63360;50.104;8.074;2023-03-23T05:49:37;2.20;;;0.70;;
74707;SDS011;63360;50.104;8.074;2023-03-23T05:52:03;3.17;;;1.03;;
74707;SDS011;63360;50.104;8.074;2023-03-23T05:54:28;2.23;;;0.90;;
74707;SDS011;63360;50.104;8.074;2023-03-23T05:56:53;1.90;;;0.80;;
74707;SDS011;63360;50.104;8.074;2023-03-23T05:59:19;2.07;;;0.70;;
74707;SDS011;63360;50.104;8.074;2023-03-23T06:01:44;2.63;;;0.83;;
74707;SDS011;63360;50.104;8.074;2023-03-23T06:04:09;2.30;;;0.90;;
74707;SDS011;63360;50.104;8.074;2023-03-23T06:06:36;2.25;;;0.88;;
74707;SDS011;63360;50.104;8.074;2023-03-23T06:09:02;3.73;;;0.90;;
74707;SDS011;63360;50.104;8.074;2023-03-23T06:11:28;2.42;;;0.93;;
74707;SDS011;63360;50.104;8.074;2023-03-23T06:13:53;2.60;;;0.90;;
74707;SDS011;63360;50.104;8.074;2023-03-23T06:16:19;4.28;;;0.95;;
74707;SDS011;63360;50.104;8.074;2023-03-23T06:18:45;3.07;;;0.90;;
74707;SDS011;63360;50.104;8.074;2023-03-23T06:21:11;1.80;;;0.60;;
74707;SDS011;63360;50.104;8.074;2023-03-23T06:23:37;2.72;;;1.08;;
74707;SDS011;63360;50.104;8.074;2023-03-23T06:26:04;3.13;;;0.80;;
74707;SDS011;63360;50.104;8.074;2023-03-23T06:28:32;1.65;;;0.70;;
74707;SDS011;63360;50.104;8.074;2023-03-23T06:31:01;2.77;;;0.80;;
74707;SDS011;63360;50.104;8.074;2023-03-23T06:33:29;1.83;;;0.87;;
74707;SDS011;63360;50.104;8.074;2023-03-23T06:35:55;3.20;;;1.15;;
74707;SDS011;63360;50.104;8.074;2023-03-23T06:38:21;2.07;;;0.93;;
74707;SDS011;63360;50.104;8.074;2023-03-23T06:40:46;3.95;;;0.68;;
74707;SDS011;63360;50.104;8.074;2023-03-23T06:43:12;2.83;;;0.93;;
74707;SDS011;63360;50.104;8.074;2023-03-23T06:45:38;2.53;;;0.50;;
74707;SDS011;63360;50.104;8.074;2023-03-23T06:48:04;1.57;;;0.70;;
74707;SDS011;63360;50.104;8.074;2023-03-23T06:50:30;2.10;;;1.00;;
74707;SDS011;63360;50.104;8.074;2023-03-23T06:52:56;2.00;;;1.20;;
74707;SDS011;63360;50.104;8.074;2023-03-23T06:55:22;5.18;;;2.53;;
74707;SDS011;63360;50.104;8.074;2023-03-23T06:57:47;6.00;;;2.60;;
74707;SDS011;63360;50.104;8.074;2023-03-23T07:00:13;3.92;;;1.40;;
74707;SDS011;63360;50.104;8.074;2023-03-23T07:02:39;5.23;;;2.17;;
74707;SDS011;63360;50.104;8.074;2023-03-23T07:05:05;4.97;;;2.30;;
74707;SDS011;63360;50.104;8.074;2023-03-23T07:07:32;3.00;;;1.40;;
74707;SDS011;63360;50.104;8.074;2023-03-23T07:09:57;3.33;;;1.13;;
74707;SDS011;63360;50.104;8.074;2023-03-23T07:12:23;3.17;;;1.50;;
74707;SDS011;63360;50.104;8.074;2023-03-23T07:14:48;3.90;;;1.52;;
74707;SDS011;63360;50.104;8.074;2023-03-23T07:17:14;5.40;;;1.97;;
74707;SDS011;63360;50.104;8.074;2023-03-23T07:19:39;3.57;;;1.20;;
74707;SDS011;63360;50.104;8.074;2023-03-23T07:22:05;2.45;;;0.70;;
74707;SDS011;63360;50.104;8.074;2023-03-23T07:24:31;2.53;;;0.80;;
74707;SDS011;63360;50.104;8.074;2023-03-23T07:26:57;3.37;;;1.00;;
74707;SDS011;63360;50.104;8.074;2023-03-23T07:29:23;3.47;;;0.90;;
74707;SDS011;63360;50.104;8.074;2023-03-23T07:31:48;2.27;;;0.60;;
74707;SDS011;63360;50.104;8.074;2023-03-23T07:34:14;1.90;;;0.80;;
74707;SDS011;63360;50.104;8.074;2023-03-23T07:36:39;1.95;;;0.80;;
74707;SDS011;63360;50.104;8.074;2023-03-23T07:39:05;2.03;;;0.70;;
74707;SDS011;63360;50.104;8.074;2023-03-23T07:41:31;2.47;;;1.15;;
74707;SDS011;63360;50.104;8.074;2023-03-23T07:43:57;4.03;;;1.27;;
74707;SDS011;63360;50.104;8.074;2023-03-23T07:46:23;1.90;;;0.90;;
74707;SDS011;63360;50.104;8.074;2023-03-23T07:48:48;2.23;;;0.90;;
74707;SDS011;63360;50.104;8.074;2023-03-23T07:51:15;2.53;;;1.05;;
74707;SDS011;63360;50.104;8.074;2023-03-23T07:53:43;2.05;;;0.70;;
74707;SDS011;63360;50.104;8.074;2023-03-23T07:56:10;4.30;;;1.00;;
74707;SDS011;63360;50.104;8.074;2023-03-23T07:58:37;2.55;;;1.00;;
74707;SDS011;63360;50.104;8.074;2023-03-23T08:01:02;2.00;;;0.90;;
74707;SDS011;63360;50.104;8.074;2023-03-23T08:03:28;1.42;;;0.80;;
74707;SDS011;63360;50.104;8.074;2023-03-23T08:05:56;3.03;;;1.10;;
74707;SDS011;63360;50.104;8.074;2023-03-23T08:08:24;3.08;;;1.08;;
74707;SDS011;63360;50.104;8.074;2023-03-23T08:10:49;2.17;;;1.23;;
74707;SDS011;63360;50.104;8.074;2023-03-23T08:13:15;2.38;;;1.00;;
74707;SDS011;63360;50.104;8.074;2023-03-23T08:15:40;2.17;;;1.00;;
74707;SDS011;63360;50.104;8.074;2023-03-23T08:18:06;3.23;;;1.20;;
74707;SDS011;63360;50.104;8.074;2023-03-23T08:20:33;3.75;;;1.15;;
74707;SDS011;63360;50.104;8.074;2023-03-23T08:22:58;3.53;;;1.50;;
74707;SDS011;63360;50.104;8.074;2023-03-23T08:25:25;3.43;;;1.23;;
74707;SDS011;63360;50.104;8.074;2023-03-23T08:27:51;2.72;;;1.00;;
74707;SDS011;63360;50.104;8.074;2023-03-23T08:30:17;3.00;;;1.20;;
74707;SDS011;63360;50.104;8.074;2023-03-23T08:32:44;2.20;;;1.05;;
74707;SDS011;63360;50.104;8.074;2023-03-23T08:35:12;2.22;;;1.00;;
74707;SDS011;63360;50.104;8.074;2023-03-23T08:37:39;2.10;;;0.80;;
74707;SDS011;63360;50.104;8.074;2023-03-23T08:40:06;1.50;;;0.70;;
74707;SDS011;63360;50.104;8.074;2023-03-23T08:42:39;2.35;;;0.90;;
74707;SDS011;63360;50.104;8.074;2023-03-23T08:45:08;1.85;;;0.85;;
74707;SDS011;63360;50.104;8.074;2023-03-23T08:47:35;1.52;;;0.65;;
74707;SDS011;63360;50.104;8.074;2023-03-23T08:50:04;2.03;;;0.63;;
74707;SDS011;63360;50.104;8.074;2023-03-23T08:52:31;1.92;;;0.73;;
74707;SDS011;63360;50.104;8.074;2023-03-23T08:54:57;2.70;;;0.60;;
74707;SDS011;63360;50.104;8.074;2023-03-23T08:57:23;2.83;;;0.50;;
74707;SDS011;63360;50.104;8.074;2023-03-23T08:59:50;1.73;;;0.80;;
74707;SDS011;63360;50.104;8.074;2023-03-23T09:02:16;1.08;;;0.50;;
74707;SDS011;63360;50.104;8.074;2023-03-23T09:04:42;1.77;;;0.77;;
74707;SDS011;63360;50.104;8.074;2023-03-23T09:07:09;1.50;;;0.55;;
74707;SDS011;63360;50.104;8.074;2023-03-23T09:09:37;1.60;;;0.40;;
74707;SDS011;63360;50.104;8.074;2023-03-23T09:12:04;1.05;;;0.50;;
74707;SDS011;63360;50.104;8.074;2023-03-23T09:14:31;1.50;;;0.80;;
74707;SDS011;63360;50.104;8.074;2023-03-23T09:16:56;1.10;;;0.40;;
74707;SDS011;63360;50.104;8.074;2023-03-23T09:19:22;1.08;;;0.30;;
74707;SDS011;63360;50.104;8.074;2023-03-23T09:21:47;1.10;;;0.47;;
74707;SDS011;63360;50.104;8.074;2023-03-23T09:24:13;1.20;;;0.50;;
74707;SDS011;63360;50.104;8.074;2023-03-23T09:26:39;1.15;;;0.40;;
74707;SDS011;63360;50.104;8.074;2023-03-23T09:29:04;1.43;;;0.37;;
74707;SDS011;63360;50.104;8.074;2023-03-23T09:31:29;1.37;;;0.37;;
74707;SDS011;63360;50.104;8.074;2023-03-23T09:33:56;1.58;;;0.50;;
74707;SDS011;63360;50.104;8.074;2023-03-23T09:36:24;1.10;;;0.28;;
74707;SDS011;63360;50.104;8.074;2023-03-23T09:38:51;1.05;;;0.40;;
74707;SDS011;63360;50.104;8.074;2023-03-23T09:47:10;1.58;;;0.45;;
74707;SDS011;63360;50.104;8.074;2023-03-23T09:49:45;1.58;;;0.30;;
74707;SDS011;63360;50.104;8.074;2023-03-23T09:52:17;0.90;;;0.40;;
74707;SDS011;63360;50.104;8.074;2023-03-23T09:54:47;1.00;;;0.30;;
74707;SDS011;63360;50.104;8.074;2023-03-23T09:57:25;0.93;;;0.50;;
74707;SDS011;63360;50.104;8.074;2023-03-23T10:02:45;0.73;;;0.30;;
74707;SDS011;63360;50.104;8.074;2023-03-23T10:05:51;1.98;;;0.32;;
74707;SDS011;63360;50.104;8.074;2023-03-23T10:08:27;0.70;;;0.40;;
74707;SDS011;63360;50.104;8.074;2023-03-23T10:14:01;1.40;;;0.40;;
74707;SDS011;63360;50.104;8.074;2023-03-23T10:16:34;2.08;;;0.40;;
74707;SDS011;63360;50.104;8.074;2023-03-23T10:19:09;0.90;;;0.35;;
74707;SDS011;63360;50.104;8.074;2023-03-23T10:21:39;0.95;;;0.30;;
74707;SDS011;63360;50.104;8.074;2023-03-23T10:24:10;1.00;;;0.30;;
74707;SDS011;63360;50.104;8.074;2023-03-23T10:26:46;0.73;;;0.30;;
74707;SDS011;63360;50.104;8.074;2023-03-23T10:29:21;1.20;;;0.35;;
74707;SDS011;63360;50.104;8.074;2023-03-23T10:31:52;1.00;;;0.40;;
74707;SDS011;63360;50.104;8.074;2023-03-23T10:34:27;1.00;;;0.32;;
74707;SDS011;63360;50.104;8.074;2023-03-23T10:37:02;2.10;;;0.57;;
74707;SDS011;63360;50.104;8.074;2023-03-23T10:40:11;1.38;;;0.30;;
74707;SDS011;63360;50.104;8.074;2023-03-23T10:42:37;2.15;;;0.40;;
74707;SDS011;63360;50.104;8.074;2023-03-23T10:45:15;3.90;;;0.30;;
74707;SDS011;63360;50.104;8.074;2023-03-23T10:47:46;0.70;;;0.30;;
74707;SDS011;63360;50.104;8.074;2023-03-23T10:50:17;0.70;;;0.30;;
74707;SDS011;63360;50.104;8.074;2023-03-23T10:52:47;1.20;;;0.30;;
74707;SDS011;63360;50.104;8.074;2023-03-23T10:55:17;1.58;;;0.28;;
74707;SDS011;63360;50.104;8.074;2023-03-23T10:57:46;1.20;;;0.35;;
74707;SDS011;63360;50.104;8.074;2023-03-23T11:00:25;1.58;;;0.40;;
74707;SDS011;63360;50.104;8.074;2023-03-23T11:02:58;1.23;;;0.30;;
74707;SDS011;63360;50.104;8.074;2023-03-23T11:05:32;0.70;;;0.30;;
74707;SDS011;63360;50.104;8.074;2023-03-23T11:07:58;1.30;;;0.50;;
74707;SDS011;63360;50.104;8.074;2023-03-23T11:10:36;1.38;;;0.50;;
74707;SDS011;63360;50.104;8.074;2023-03-23T11:13:04;1.23;;;0.40;;
74707;SDS011;63360;50.104;8.074;2023-03-23T11:15:35;0.90;;;0.30;;
74707;SDS011;63360;50.104;8.074;2023-03-23T11:18:05;1.77;;;0.75;;
74707;SDS011;63360;50.104;8.074;2023-03-23T11:20:36;1.40;;;0.40;;
74707;SDS011;63360;50.104;8.074;2023-03-23T11:28:42;0.60;;;0.30;;
74707;SDS011;63360;50.104;8.074;2023-03-23T11:31:11;0.65;;;0.28;;
74707;SDS011;63360;50.104;8.074;2023-03-23T11:33:46;0.60;;;0.30;;
74707;SDS011;63360;50.104;8.074;2023-03-23T11:36:16;1.10;;;0.40;;
74707;SDS011;63360;50.104;8.074;2023-03-23T11:38:42;0.88;;;0.30;;
74707;SDS011;63360;50.104;8.074;2023-03-23T11:41:10;0.83;;;0.30;;
74707;SDS011;63360;50.104;8.074;2023-03-23T11:43:41;1.92;;;0.40;;
74707;SDS011;63360;50.104;8.074;2023-03-23T11:48:58;0.95;;;0.30;;
74707;SDS011;63360;50.104;8.074;2023-03-23T11:54:15;0.80;;;0.30;;
74707;SDS011;63360;50.104;8.074;2023-03-23T11:56:42;1.58;;;0.30;;
74707;SDS011;63360;50.104;8.074;2023-03-23T11:59:11;1.05;;;0.30;;
74707;SDS011;63360;50.104;8.074;2023-03-23T12:15:53;1.33;;;0.30;;
74707;SDS011;63360;50.104;8.074;2023-03-23T12:30:11;1.45;;;0.30;;
74707;SDS011;63360;50.104;8.074;2023-03-23T12:35:25;0.70;;;0.30;;
74707;SDS011;63360;50.104;8.074;2023-03-23T12:41:05;1.53;;;0.60;;
74707;SDS011;63360;50.104;8.074;2023-03-23T12:46:19;1.75;;;0.60;;
74707;SDS011;63360;50.104;8.074;2023-03-23T12:48:57;1.15;;;0.70;;
74707;SDS011;63360;50.104;8.074;2023-03-23T12:51:32;1.67;;;0.80;;
74707;SDS011;63360;50.104;8.074;2023-03-23T12:54:07;1.15;;;0.60;;
74707;SDS011;63360;50.104;8.074;2023-03-23T12:59:54;1.13;;;0.70;;
74707;SDS011;63360;50.104;8.074;2023-03-23T13:02:32;2.75;;;0.80;;
74707;SDS011;63360;50.104;8.074;2023-03-23T13:07:45;1.55;;;0.70;;
74707;SDS011;63360;50.104;8.074;2023-03-23T13:10:28;1.87;;;0.73;;
74707;SDS011;63360;50.104;8.074;2023-03-23T13:12:58;2.67;;;0.73;;
74707;SDS011;63360;50.104;8.074;2023-03-23T13:15:31;1.30;;;0.60;;
74707;SDS011;63360;50.104;8.074;2023-03-23T13:18:10;2.17;;;0.63;;
74707;SDS011;63360;50.104;8.074;2023-03-23T13:23:53;3.23;;;0.80;;
74707;SDS011;63360;50.104;8.074;2023-03-23T13:26:22;1.80;;;0.57;;
74707;SDS011;63360;50.104;8.074;2023-03-23T13:28:51;1.42;;;0.70;;
74707;SDS011;63360;50.104;8.074;2023-03-23T13:34:03;2.28;;;0.80;;
74707;SDS011;63360;50.104;8.074;2023-03-23T13:36:33;1.20;;;0.50;;
74707;SDS011;63360;50.104;8.074;2023-03-23T13:39:05;1.08;;;0.50;;
74707;SDS011;63360;50.104;8.074;2023-03-23T13:41:54;1.20;;;0.50;;
74707;SDS011;63360;50.104;8.074;2023-03-23T13:44:26;1.27;;;0.60;;
74707;SDS011;63360;50.104;8.074;2023-03-23T13:47:08;1.40;;;0.50;;
74707;SDS011;63360;50.104;8.074;2023-03-23T13:49:46;1.23;;;0.50;;
74707;SDS011;63360;50.104;8.074;2023-03-23T13:52:17;0.93;;;0.50;;
74707;SDS011;63360;50.104;8.074;2023-03-23T13:54:46;2.38;;;0.40;;
74707;SDS011;63360;50.104;8.074;2023-03-23T13:57:32;1.10;;;0.65;;
74707;SDS011;63360;50.104;8.074;2023-03-23T14:00:10;0.95;;;0.40;;
74707;SDS011;63360;50.104;8.074;2023-03-23T14:02:49;1.67;;;0.60;;
74707;SDS011;63360;50.104;8.074;2023-03-23T14:10:54;2.20;;;0.50;;
74707;SDS011;63360;50.104;8.074;2023-03-23T14:13:31;0.90;;;0.40;;
74707;SDS011;63360;50.104;8.074;2023-03-23T14:16:13;2.00;;;0.50;;
74707;SDS011;63360;50.104;8.074;2023-03-23T14:18:48;1.33;;;0.60;;
74707;SDS011;63360;50.104;8.074;2023-03-23T14:21:22;0.90;;;0.50;;
74707;SDS011;63360;50.104;8.074;2023-03-23T14:24:08;1.50;;;0.50;;
74707;SDS011;63360;50.104;8.074;2023-03-23T14:26:36;1.45;;;0.70;;
74707;SDS011;63360;50.104;8.074;2023-03-23T14:29:02;2.13;;;0.53;;
74707;SDS011;63360;50.104;8.074;2023-03-23T14:31:29;1.90;;;0.50;;
74707;SDS011;63360;50.104;8.074;2023-03-23T14:33:55;2.10;;;0.57;;
74707;SDS011;63360;50.104;8.074;2023-03-23T14:36:29;2.90;;;0.60;;
74707;SDS011;63360;50.104;8.074;2023-03-23T14:39:04;1.65;;;0.60;;
74707;SDS011;63360;50.104;8.074;2023-03-23T14:41:37;1.63;;;0.68;;
74707;SDS011;63360;50.104;8.074;2023-03-23T14:44:03;2.38;;;0.70;;
74707;SDS011;63360;50.104;8.074;2023-03-23T14:46:33;1.10;;;0.50;;
74707;SDS011;63360;50.104;8.074;2023-03-23T14:49:00;2.55;;;0.57;;
74707;SDS011;63360;50.104;8.074;2023-03-23T14:51:27;1.00;;;0.43;;
74707;SDS011;63360;50.104;8.074;2023-03-23T14:53:52;2.10;;;0.60;;
74707;SDS011;63360;50.104;8.074;2023-03-23T14:56:20;2.10;;;0.43;;
74707;SDS011;63360;50.104;8.074;2023-03-23T14:58:49;2.13;;;0.70;;
74707;SDS011;63360;50.104;8.074;2023-03-23T15:01:23;2.42;;;0.70;;
74707;SDS011;63360;50.104;8.074;2023-03-23T15:04:05;1.67;;;0.50;;
74707;SDS011;63360;50.104;8.074;2023-03-23T15:06:36;2.33;;;0.40;;
74707;SDS011;63360;50.104;8.074;2023-03-23T15:09:07;1.98;;;0.47;;
74707;SDS011;63360;50.104;8.074;2023-03-23T15:11:38;3.13;;;0.50;;
74707;SDS011;63360;50.104;8.074;2023-03-23T15:14:13;3.17;;;0.60;;
74707;SDS011;63360;50.104;8.074;2023-03-23T15:16:45;1.83;;;0.40;;
74707;SDS011;63360;50.104;8.074;2023-03-23T15:19:16;1.50;;;0.65;;
74707;SDS011;63360;50.104;8.074;2023-03-23T15:21:52;2.03;;;0.90;;
74707;SDS011;63360;50.104;8.074;2023-03-23T15:24:41;2.35;;;0.75;;
74707;SDS011;63360;50.104;8.074;2023-03-23T15:29:48;1.95;;;0.80;;
74707;SDS011;63360;50.104;8.074;2023-03-23T15:32:21;1.58;;;0.73;;
74707;SDS011;63360;50.104;8.074;2023-03-23T15:34:52;2.95;;;0.70;;
74707;SDS011;63360;50.104;8.074;2023-03-23T15:39:50;2.00;;;0.73;;
74707;SDS011;63360;50.104;8.074;2023-03-23T15:42:21;2.03;;;0.80;;
74707;SDS011;63360;50.104;8.074;2023-03-23T15:45:02;1.85;;;0.50;;
74707;SDS011;63360;50.104;8.074;2023-03-23T15:50:11;1.70;;;0.60;;
74707;SDS011;63360;50.104;8.074;2023-03-23T15:52:40;2.05;;;0.60;;
74707;SDS011;63360;50.104;8.074;2023-03-23T15:55:23;2.63;;;0.77;;
74707;SDS011;63360;50.104;8.074;2023-03-23T15:57:53;1.75;;;0.60;;
74707;SDS011;63360;50.104;8.074;2023-03-23T16:00:22;2.10;;;0.60;;
74707;SDS011;63360;50.104;8.074;2023-03-23T16:03:00;2.03;;;0.70;;
74707;SDS011;63360;50.104;8.074;2023-03-23T16:05:29;1.08;;;0.47;;
74707;SDS011;63360;50.104;8.074;2023-03-23T16:07:56;2.85;;;0.80;;
74707;SDS011;63360;50.104;8.074;2023-03-23T16:10:24;2.35;;;0.70;;
74707;SDS011;63360;50.104;8.074;2023-03-23T16:12:51;2.05;;;0.88;;
74707;SDS011;63360;50.104;8.074;2023-03-23T16:15:18;2.23;;;0.67;;
74707;SDS011;63360;50.104;8.074;2023-03-23T16:17:46;1.35;;;0.60;;
74707;SDS011;63360;50.104;8.074;2023-03-23T16:20:16;1.58;;;0.70;;
74707;SDS011;63360;50.104;8.074;2023-03-23T16:22:45;3.17;;;0.63;;
74707;SDS011;63360;50.104;8.074;2023-03-23T16:25:12;3.92;;;0.80;;
74707;SDS011;63360;50.104;8.074;2023-03-23T16:27:40;1.40;;;0.90;;
74707;SDS011;63360;50.104;8.074;2023-03-23T16:30:18;3.05;;;0.70;;
74707;SDS011;63360;50.104;8.074;2023-03-23T16:32:51;4.72;;;1.70;;
74707;SDS011;63360;50.104;8.074;2023-03-23T16:35:22;7.72;;;1.88;;
74707;SDS011;63360;50.104;8.074;2023-03-23T16:37:53;2.65;;;1.10;;
74707;SDS011;63360;50.104;8.074;2023-03-23T16:40:34;3.40;;;1.03;;